Washingtn Park, Illinois
Current Conditions -  °F | °C
As of 3:53 AM on Thursday 27 Nov 2014 (Local Time) from KCPS Reporting Station
Overcast Overcast  
Wind Chill: 22°   Ceiling: 1600
Heat Index: 31°   Visibility: 8mi
Dew Point: 27°   Wind: 12mph
Humidity: 85%   Direction: 330°NNW
Pressure: 30.36"   Gusts: NA
Location:  38.6057°N, 90.1182°W
Report Text: KCPS 270953Z AUTO 33010KT 8SM OVC016 M01/M03 A3036 RMK AO2 SLP286 T10061028 TSNO
Loading
Personal Weather Stations






























Interactive Weather Map New forecast layout! Learn more

10-Day Weather Forecast

Advertisements
Track Severe Weather on mobile